Time;durP1;ratioP1;P1;durP2;ratioP2;P2;SDS_P1;SDS_P2;PMS_P1;PMS_P2;Temp;Humidity;BMP_temperature;BMP_pressure;BME280_temperature;BME280_humidity;BME280_pressure;Samples;Min_cycle;Max_cycle;Signal;HPM_P1;HPM_P2
2022/12/01 00:00:58;;;;;;;1.15;1.13;;;5.20;95.00;;;;;;4957080;28;20185;-69
2022/12/01 00:03:24;;;;;;;3.40;2.35;;;5.30;94.60;;;;;;4957208;28;20566;-69
2022/12/01 00:05:59;;;;;;;0.75;0.75;;;5.30;94.70;;;;;;4957149;28;20635;-68
2022/12/01 00:08:25;;;;;;;0.30;0.30;;;5.40;95.30;;;;;;4956923;28;20201;-67
2022/12/01 00:10:51;;;;;;;0.60;0.60;;;5.40;94.60;;;;;;4956780;28;20178;-69
2022/12/01 00:13:17;;;;;;;1.52;1.48;;;5.50;94.60;;;;;;4957151;28;20228;-68
2022/12/01 00:15:43;;;;;;;0.40;0.40;;;5.40;95.00;;;;;;4956563;28;20617;-69
2022/12/01 00:18:09;;;;;;;0.93;0.93;;;5.40;95.20;;;;;;4956726;28;20201;-68
2022/12/01 00:20:35;;;;;;;2.10;1.90;;;5.30;94.90;;;;;;4956739;28;20232;-69
2022/12/01 00:23:01;;;;;;;0.40;0.40;;;5.30;95.00;;;;;;4956939;28;20181;-68
2022/12/01 00:25:27;;;;;;;2.72;2.58;;;5.30;94.90;;;;;;4956639;28;20500;-69
2022/12/01 00:27:54;;;;;;;1.45;1.35;;;5.40;95.30;;;;;;4956685;28;20276;-68
2022/12/01 00:30:21;;;;;;;2.22;2.13;;;5.40;95.10;;;;;;4956506;28;20173;-69
2022/12/01 00:32:47;;;;;;;0.50;0.50;;;5.40;95.40;;;;;;4956721;28;20308;-69
2022/12/01 00:35:14;;;;;;;3.25;2.55;;;5.30;95.30;;;;;;4956582;28;20236;-69
2022/12/01 00:37:40;;;;;;;2.08;1.10;;;5.30;95.00;;;;;;4956368;28;20204;-69
2022/12/01 00:40:07;;;;;;;12.90;1.93;;;5.30;95.00;;;;;;4956188;28;20639;-70
2022/12/01 00:42:33;;;;;;;0.50;0.50;;;5.40;95.10;;;;;;4956326;28;20415;-69
2022/12/01 00:44:59;;;;;;;0.87;0.87;;;5.40;95.00;;;;;;4956508;28;20253;-70
2022/12/01 00:47:24;;;;;;;20.17;2.77;;;5.40;95.20;;;;;;4956065;28;20270;-70
2022/12/01 00:49:51;;;;;;;0.83;0.83;;;5.40;94.80;;;;;;4956257;28;20647;-68
2022/12/01 00:52:18;;;;;;;2.80;1.55;;;5.40;94.50;;;;;;4956402;28;20272;-70
2022/12/01 00:54:44;;;;;;;0.40;0.40;;;5.40;94.70;;;;;;4956111;28;20260;-69
2022/12/01 00:57:10;;;;;;;2.42;1.27;;;5.40;94.30;;;;;;4954782;28;20683;-69
2022/12/01 00:59:36;;;;;;;1.85;1.00;;;5.30;94.40;;;;;;4956069;28;20661;-69
2022/12/01 01:02:05;;;;;;;0.53;0.53;;;5.40;94.70;;;;;;4956075;28;20181;-68
2022/12/01 01:04:33;;;;;;;0.60;0.50;;;5.50;94.40;;;;;;4954909;29;20184;-69
2022/12/01 01:06:58;;;;;;;2.75;1.40;;;5.50;94.20;;;;;;4955831;28;20216;-70
2022/12/01 01:09:27;;;;;;;0.40;0.40;;;5.40;94.30;;;;;;4955797;28;20169;-69
2022/12/01 01:11:53;;;;;;;0.77;0.77;;;5.40;94.80;;;;;;4955924;28;20169;-68
2022/12/01 01:14:20;;;;;;;3.42;3.22;;;5.50;94.50;;;;;;4956212;28;20182;-69
2022/12/01 01:16:46;;;;;;;0.30;0.30;;;5.50;94.90;;;;;;4954312;28;20213;-69
2022/12/01 01:19:12;;;;;;;0.50;0.50;;;5.50;95.40;;;;;;4954442;29;20169;-69
2022/12/01 01:21:38;;;;;;;7.43;1.47;;;5.50;95.30;;;;;;4955944;28;20495;-69
2022/12/01 01:24:04;;;;;;;0.57;0.57;;;5.50;94.90;;;;;;4955665;28;20230;-69
2022/12/01 01:26:31;;;;;;;0.98;0.98;;;5.50;94.80;;;;;;4955890;28;20232;-68
2022/12/01 01:29:00;;;;;;;1.02;1.02;;;5.40;94.70;;;;;;4955025;28;20210;-70
2022/12/01 01:31:28;;;;;;;0.60;0.60;;;5.40;94.60;;;;;;4955612;28;20261;-69
2022/12/01 01:33:55;;;;;;;1.67;1.20;;;5.50;94.50;;;;;;4955769;28;20540;-69
2022/12/01 01:36:22;;;;;;;2.25;2.10;;;5.50;94.70;;;;;;4955597;28;20185;-69
2022/12/01 01:38:50;;;;;;;9.25;5.25;;;5.50;94.70;;;;;;4954194;29;20177;-68
2022/12/01 01:41:17;;;;;;;4.80;1.67;;;5.50;94.20;;;;;;4954283;29;20682;-69
2022/12/01 01:43:48;;;;;;;0.40;0.40;;;5.50;93.40;;;;;;4955355;28;20185;-69
2022/12/01 01:46:17;;;;;;;0.43;0.43;;;5.60;93.80;;;;;;4955281;28;20264;-68
2022/12/01 01:48:54;;;;;;;0.60;0.60;;;5.40;94.60;;;;;;4955252;28;20209;-68
2022/12/01 01:51:31;;;;;;;4.70;1.67;;;5.40;94.40;;;;;;4955473;28;20180;-69
2022/12/01 01:54:05;;;;;;;1.80;1.70;;;5.40;93.90;;;;;;4955738;28;20173;-69
2022/12/01 01:56:31;;;;;;;5.30;1.98;;;5.40;93.50;;;;;;4955315;28;20197;-69
2022/12/01 01:58:58;;;;;;;1.07;1.03;;;5.20;93.70;;;;;;4953931;29;20244;-69
2022/12/01 02:01:23;;;;;;;0.98;0.98;;;5.20;93.50;;;;;;4955771;28;20802;-69
2022/12/01 02:03:52;;;;;;;0.40;0.40;;;5.20;93.80;;;;;;4955303;28;20229;-69
2022/12/01 02:06:17;;;;;;;0.70;0.70;;;5.30;93.80;;;;;;4955306;28;20174;-68
2022/12/01 02:08:43;;;;;;;0.93;0.87;;;5.30;93.40;;;;;;4955341;28;20197;-69
2022/12/01 02:11:08;;;;;;;1.37;1.27;;;5.30;93.40;;;;;;4953999;29;20173;-69
2022/12/01 02:13:55;;;;;;;0.57;0.57;;;5.30;93.30;;;;;;4955101;28;20527;-69
2022/12/01 02:16:44;;;;;;;0.60;0.60;;;5.40;93.40;;;;;;4955060;28;20547;-69
2022/12/01 02:19:50;;;;;;;2.55;1.20;;;5.40;93.20;;;;;;4955071;29;20244;-69
2022/12/01 02:22:32;;;;;;;1.05;1.02;;;5.40;93.60;;;;;;4953717;29;20643;-69
2022/12/01 02:25:35;;;;;;;2.78;2.67;;;5.30;93.40;;;;;;4955148;28;20520;-68
2022/12/01 02:28:28;;;;;;;0.95;0.95;;;5.20;93.30;;;;;;4932527;28;20243;-69
2022/12/01 02:31:04;;;;;;;0.52;0.52;;;5.20;93.30;;;;;;4954947;28;20178;-67
2022/12/01 02:33:48;;;;;;;0.40;0.40;;;5.20;93.50;;;;;;4953880;29;20189;-69
2022/12/01 02:36:22;;;;;;;15.05;3.65;;;5.30;93.60;;;;;;4955228;28;20174;-69
2022/12/01 02:38:55;;;;;;;3.40;1.35;;;5.30;93.40;;;;;;4955075;28;20157;-69
2022/12/01 02:41:25;;;;;;;0.40;0.40;;;5.30;93.10;;;;;;4958597;28;20181;-69
2022/12/01 02:44:17;;;;;;;1.40;1.30;;;5.40;93.60;;;;;;4958731;28;20180;-68
2022/12/01 02:46:51;;;;;;;0.73;0.73;;;5.50;93.00;;;;;;4958406;28;20213;-69
2022/12/01 02:49:22;;;;;;;0.80;0.60;;;5.50;93.20;;;;;;4958532;28;20165;-69
2022/12/01 02:51:51;;;;;;;0.98;0.98;;;5.40;92.80;;;;;;4958748;28;20220;-69
2022/12/01 02:54:18;;;;;;;1.08;0.65;;;5.40;93.00;;;;;;4958416;28;20256;-68
2022/12/01 02:56:44;;;;;;;1.20;1.20;;;5.40;93.50;;;;;;4958358;28;20205;-69
2022/12/01 02:59:12;;;;;;;0.60;0.60;;;5.40;93.70;;;;;;4958185;28;20170;-69
2022/12/01 03:02:15;;;;;;;0.70;0.70;;;5.20;93.20;;;;;;4957185;29;20910;-68
2022/12/01 03:04:56;;;;;;;3.60;2.25;;;5.20;93.20;;;;;;4955242;29;20204;-68
2022/12/01 03:07:36;;;;;;;1.83;1.73;;;5.30;93.30;;;;;;4958238;28;20340;-69
2022/12/01 03:10:16;;;;;;;3.50;3.30;;;5.30;93.10;;;;;;4957994;28;20168;-70
2022/12/01 03:13:00;;;;;;;3.38;1.25;;;5.30;93.30;;;;;;4956884;29;20263;-69
2022/12/01 03:15:31;;;;;;;0.93;0.93;;;5.40;93.50;;;;;;4958118;28;20254;-69
2022/12/01 03:18:26;;;;;;;0.50;0.50;;;5.40;93.80;;;;;;4956659;28;20205;-69
2022/12/01 03:20:57;;;;;;;1.40;1.40;;;5.40;93.40;;;;;;4957743;28;20209;-68
2022/12/01 03:23:27;;;;;;;0.40;0.40;;;5.40;93.30;;;;;;4958133;28;20181;-69
2022/12/01 03:25:55;;;;;;;3.80;0.75;;;5.40;93.50;;;;;;4957797;28;20186;-69
2022/12/01 03:28:27;;;;;;;1.60;1.50;;;5.40;93.20;;;;;;4958145;28;20214;-68
2022/12/01 03:30:57;;;;;;;1.70;1.67;;;5.40;93.00;;;;;;4957559;28;20349;-68
2022/12/01 03:33:36;;;;;;;1.15;1.13;;;5.50;93.20;;;;;;4957660;28;20166;-69
2022/12/01 03:36:13;;;;;;;2.85;2.60;;;5.50;93.30;;;;;;4957988;28;20505;-68
2022/12/01 03:38:42;;;;;;;0.40;0.40;;;5.40;93.10;;;;;;4957491;28;20246;-68
2022/12/01 03:41:13;;;;;;;1.60;1.50;;;5.30;93.40;;;;;;4957652;28;20181;-69
2022/12/01 03:43:43;;;;;;;1.10;1.10;;;5.10;93.50;;;;;;4957516;28;20174;-69
2022/12/01 03:46:46;;;;;;;1.08;1.08;;;5.20;93.70;;;;;;4957490;28;20227;-69
2022/12/01 03:49:13;;;;;;;1.02;0.93;;;5.20;93.40;;;;;;4947634;29;20190;-69
2022/12/01 03:52:09;;;;;;;0.50;0.50;;;5.20;93.50;;;;;;4956918;28;20178;-69
2022/12/01 03:55:10;;;;;;;0.80;0.80;;;5.20;93.60;;;;;;4957344;28;20173;-68
2022/12/01 03:58:13;;;;;;;1.55;1.48;;;5.20;93.60;;;;;;4898325;29;20301;-69
2022/12/01 04:00:40;;;;;;;1.33;1.33;;;5.10;93.40;;;;;;4953908;29;20521;-69
2022/12/01 04:03:06;;;;;;;0.70;0.70;;;5.20;93.70;;;;;;4957188;28;20178;-68
2022/12/01 04:05:33;;;;;;;1.83;1.63;;;5.20;93.90;;;;;;4957126;29;20228;-69
2022/12/01 04:07:59;;;;;;;0.40;0.40;;;5.10;93.80;;;;;;4957125;28;20820;-69
2022/12/01 04:10:25;;;;;;;0.77;0.77;;;5.30;93.50;;;;;;4956900;28;20635;-68
2022/12/01 04:12:57;;;;;;;0.40;0.40;;;5.30;93.30;;;;;;4957194;28;20230;-69
2022/12/01 04:15:23;;;;;;;0.98;0.40;;;5.40;93.40;;;;;;4957224;28;20428;-69
2022/12/01 04:17:49;;;;;;;0.60;0.60;;;5.30;93.70;;;;;;4956952;28;20275;-68
2022/12/01 04:20:16;;;;;;;1.77;1.67;;;5.20;93.70;;;;;;4956673;28;20922;-68
2022/12/01 04:22:41;;;;;;;0.85;0.85;;;5.30;93.90;;;;;;4956775;28;20166;-68
2022/12/01 04:25:07;;;;;;;0.53;0.53;;;5.30;94.00;;;;;;4957163;28;20191;-69
2022/12/01 04:27:34;;;;;;;2.22;2.13;;;5.30;94.20;;;;;;4956510;28;20213;-69
2022/12/01 04:30:00;;;;;;;1.73;1.63;;;5.20;93.90;;;;;;4956569;28;20647;-69
2022/12/01 04:32:26;;;;;;;1.73;0.70;;;5.10;93.90;;;;;;4956848;28;20290;-69
2022/12/01 04:34:51;;;;;;;1.23;1.20;;;5.10;93.90;;;;;;4956780;28;20176;-68
2022/12/01 04:37:18;;;;;;;2.10;2.00;;;5.10;94.00;;;;;;4956548;28;20582;-69
2022/12/01 04:39:44;;;;;;;0.95;0.95;;;5.00;93.70;;;;;;4956289;28;20476;-69
2022/12/01 04:42:10;;;;;;;1.13;1.03;;;4.70;93.60;;;;;;4956504;28;20181;-68
2022/12/01 04:44:36;;;;;;;1.70;0.63;;;4.70;93.90;;;;;;4956762;28;20174;-69
2022/12/01 04:47:03;;;;;;;1.25;1.15;;;4.80;94.20;;;;;;4956135;28;20237;-69
2022/12/01 04:49:29;;;;;;;3.05;1.70;;;4.70;94.10;;;;;;4956220;28;20170;-68
2022/12/01 04:51:54;;;;;;;1.40;1.00;;;4.60;94.10;;;;;;4954937;29;20534;-69
2022/12/01 04:54:21;;;;;;;2.87;2.57;;;4.70;94.20;;;;;;4956440;28;20212;-69
2022/12/01 04:56:46;;;;;;;6.18;1.50;;;4.70;94.40;;;;;;4956108;28;20235;-69
2022/12/01 04:59:12;;;;;;;2.43;2.33;;;4.80;94.30;;;;;;4955986;28;20209;-68
2022/12/01 05:01:38;;;;;;;0.40;0.40;;;4.90;94.00;;;;;;4956386;28;20532;-68
2022/12/01 05:04:03;;;;;;;0.30;0.30;;;4.90;93.70;;;;;;4955259;28;20169;-68
2022/12/01 05:06:29;;;;;;;1.77;1.67;;;4.80;94.00;;;;;;4955865;28;20205;-69
2022/12/01 05:08:57;;;;;;;0.50;0.50;;;4.70;94.30;;;;;;4955843;29;20162;-69
2022/12/01 05:11:24;;;;;;;4.00;1.77;;;4.80;94.30;;;;;;4955941;28;20294;-68
2022/12/01 05:13:50;;;;;;;2.25;2.05;;;4.80;94.20;;;;;;4955952;28;20170;-69
2022/12/01 05:16:22;;;;;;;4.63;0.87;;;4.80;94.20;;;;;;4955645;28;20185;-69
2022/12/01 05:21:44;;;;;;;0.40;0.40;;;4.80;93.60;;;;;;4954652;28;20181;-68
2022/12/01 05:24:11;;;;;;;0.85;0.85;;;4.90;93.40;;;;;;4955772;28;20188;-69
2022/12/01 05:26:38;;;;;;;1.00;1.00;;;4.90;92.90;;;;;;4955534;28;20201;-69
2022/12/01 05:29:04;;;;;;;1.35;0.82;;;4.80;92.90;;;;;;4955628;28;20524;-69
2022/12/01 05:31:31;;;;;;;2.13;2.05;;;4.80;92.90;;;;;;4955775;28;20180;-68
2022/12/01 05:33:56;;;;;;;1.45;1.35;;;4.80;92.80;;;;;;4955533;28;20170;-68
2022/12/01 05:36:23;;;;;;;3.63;3.33;;;4.70;93.30;;;;;;4955500;28;20700;-68
2022/12/01 05:38:49;;;;;;;1.25;1.13;;;4.70;93.30;;;;;;4955317;28;20539;-69
2022/12/01 05:41:15;;;;;;;0.40;0.40;;;4.70;93.30;;;;;;4955709;28;20181;-69
2022/12/01 05:43:43;;;;;;;1.25;1.15;;;4.60;93.60;;;;;;4955709;28;20182;-69
2022/12/01 05:46:09;;;;;;;0.95;0.95;;;4.70;93.80;;;;;;4954318;29;20276;-68
2022/12/01 05:48:35;;;;;;;0.88;0.88;;;4.60;93.30;;;;;;4955233;28;20676;-69
2022/12/01 05:51:08;;;;;;;0.70;0.70;;;4.60;93.20;;;;;;4955399;28;20224;-68
2022/12/01 05:53:33;;;;;;;0.63;0.63;;;4.50;93.40;;;;;;4955601;28;20224;-68
2022/12/01 05:55:59;;;;;;;0.63;0.60;;;4.50;93.70;;;;;;4955489;28;20268;-69
2022/12/01 05:58:24;;;;;;;0.47;0.47;;;4.40;94.40;;;;;;4955243;28;20197;-69
2022/12/01 06:00:50;;;;;;;0.77;0.77;;;4.20;94.30;;;;;;4955327;28;20701;-69
2022/12/01 06:03:16;;;;;;;2.73;2.63;;;4.30;94.30;;;;;;4955467;28;20188;-68
2022/12/01 06:05:41;;;;;;;4.07;1.20;;;4.40;94.20;;;;;;4955320;28;20177;-68
2022/12/01 06:08:07;;;;;;;0.80;0.80;;;4.30;94.30;;;;;;4955127;28;20205;-68
2022/12/01 06:10:33;;;;;;;1.20;0.87;;;4.30;94.20;;;;;;4955140;28;20240;-68
2022/12/01 06:12:59;;;;;;;0.50;0.50;;;4.30;94.50;;;;;;4955373;28;20582;-68
2022/12/01 06:15:25;;;;;;;1.47;1.47;;;4.30;94.40;;;;;;4956807;28;20428;-68
2022/12/01 06:17:50;;;;;;;1.83;1.45;;;4.30;94.40;;;;;;4959087;28;20739;-68
2022/12/01 06:20:16;;;;;;;1.40;1.40;;;4.30;94.30;;;;;;4957624;29;20205;-68
2022/12/01 06:22:42;;;;;;;1.80;0.93;;;4.40;94.20;;;;;;4959083;28;20197;-68
2022/12/01 06:25:08;;;;;;;0.80;0.80;;;4.30;94.00;;;;;;4959026;28;20221;-69
2022/12/01 06:27:37;;;;;;;0.57;0.57;;;4.30;94.10;;;;;;4958965;28;20208;-69
2022/12/01 06:30:04;;;;;;;0.95;0.80;;;4.30;93.80;;;;;;4957116;29;20281;-69
2022/12/01 06:32:30;;;;;;;3.45;3.15;;;4.30;93.70;;;;;;4959216;28;20181;-69
2022/12/01 06:34:55;;;;;;;1.17;1.17;;;4.20;93.80;;;;;;4958813;28;20176;-71
2022/12/01 06:37:21;;;;;;;1.67;1.47;;;4.00;93.80;;;;;;4957294;28;20196;-71
2022/12/01 06:39:47;;;;;;;1.90;1.80;;;3.70;94.20;;;;;;4958608;28;20557;-71
2022/12/01 06:42:12;;;;;;;2.47;1.37;;;3.70;94.40;;;;;;4959292;28;20189;-71
2022/12/01 06:44:38;;;;;;;2.77;2.57;;;3.60;94.60;;;;;;4958768;28;20177;-70
2022/12/01 06:47:04;;;;;;;1.57;1.57;;;3.70;94.60;;;;;;4957319;28;20213;-70
2022/12/01 06:49:29;;;;;;;0.37;0.37;;;3.40;94.60;;;;;;4958156;28;20165;-74
2022/12/01 06:51:55;;;;;;;0.53;0.53;;;3.40;94.90;;;;;;4958857;28;20901;-68
2022/12/01 06:54:21;;;;;;;0.90;0.87;;;3.90;99.90;;;;;;4957049;28;20256;-68
2022/12/01 06:56:46;;;;;;;0.50;0.50;;;5.30;99.90;;;;;;4958749;28;20551;-68
2022/12/01 06:59:12;;;;;;;4.43;3.33;;;6.50;99.90;;;;;;4958074;28;20214;-68
2022/12/01 07:01:38;;;;;;;1.00;1.00;;;7.60;99.90;;;;;;4957459;28;20171;-69
2022/12/01 07:04:04;;;;;;;3.70;3.60;;;8.50;98.00;;;;;;4957164;29;20274;-68
2022/12/01 07:06:32;;;;;;;0.80;0.80;;;9.20;95.40;;;;;;4958379;28;20188;-68
2022/12/01 07:08:59;;;;;;;1.80;1.70;;;9.80;93.60;;;;;;4958412;28;20646;-67
2022/12/01 07:11:25;;;;;;;2.38;1.98;;;10.20;91.30;;;;;;4958783;28;20178;-67
2022/12/01 07:13:54;;;;;;;2.10;1.93;;;10.60;90.20;;;;;;4958084;28;20252;-70
2022/12/01 07:16:21;;;;;;;2.10;1.60;;;10.80;84.90;;;;;;4958341;28;20177;-71
2022/12/01 07:18:46;;;;;;;1.10;1.10;;;10.30;76.40;;;;;;4957909;28;20172;-70
2022/12/01 07:21:13;;;;;;;2.83;2.63;;;9.30;77.60;;;;;;4958363;28;20169;-70
2022/12/01 07:43:20;;;;;;;1.15;1.15;;;3.70;93.90;;;;;;4956615;28;20248;-69
2022/12/01 07:45:45;;;;;;;0.50;0.50;;;3.50;94.50;;;;;;4957478;28;20186;-69
2022/12/01 07:48:11;;;;;;;2.40;2.20;;;3.50;94.80;;;;;;4958064;28;20282;-69
2022/12/01 07:56:38;;;;;;;1.80;1.35;;;3.30;95.60;;;;;;5954121;23;20285;-69
2022/12/01 07:59:03;;;;;;;0.50;0.50;;;3.30;95.90;;;;;;4938208;29;20281;-68
2022/12/01 08:01:29;;;;;;;2.10;1.27;;;3.40;96.50;;;;;;4952873;29;20219;-68
2022/12/01 08:39:08;;;;;;;3.42;1.70;;;3.80;95.10;;;;;;4956612;28;20223;-67
2022/12/01 08:41:34;;;;;;;1.13;1.13;;;3.60;95.50;;;;;;4956504;28;20272;-67
2022/12/01 08:43:59;;;;;;;1.30;1.30;;;3.80;95.80;;;;;;4956572;28;20677;-67
2022/12/01 08:46:26;;;;;;;1.37;1.27;;;3.80;95.20;;;;;;4956551;28;20173;-67
2022/12/01 08:48:53;;;;;;;3.22;0.68;;;3.90;95.30;;;;;;4956296;28;20172;-66
2022/12/01 08:51:19;;;;;;;0.57;0.57;;;3.90;94.80;;;;;;4956289;28;20233;-66
2022/12/01 08:53:47;;;;;;;1.80;1.40;;;4.00;94.60;;;;;;4955960;28;20190;-67
2022/12/01 08:56:17;;;;;;;0.60;0.60;;;4.10;94.60;;;;;;4956251;28;20178;-67
2022/12/01 08:58:43;;;;;;;3.42;1.88;;;4.10;94.50;;;;;;4956398;28;20294;-67
2022/12/01 09:01:11;;;;;;;1.02;0.93;;;4.20;94.00;;;;;;4955962;28;20165;-65
2022/12/01 09:03:38;;;;;;;0.60;0.60;;;4.20;94.00;;;;;;4954621;28;20288;-66
2022/12/01 09:06:11;;;;;;;0.40;0.40;;;4.20;94.20;;;;;;4955505;28;20176;-66
2022/12/01 09:08:37;;;;;;;0.32;0.32;;;4.30;93.80;;;;;;4955115;28;20212;-66
2022/12/01 09:11:07;;;;;;;1.48;1.48;;;4.40;93.80;;;;;;4955396;29;20224;-66
2022/12/01 09:13:34;;;;;;;0.77;0.77;;;4.50;93.50;;;;;;4955889;28;20596;-66
2022/12/01 09:16:09;;;;;;;1.02;1.02;;;4.50;92.70;;;;;;4956340;28;20237;-66
2022/12/01 09:18:34;;;;;;;0.50;0.50;;;4.60;92.70;;;;;;4956292;28;20177;-66
2022/12/01 09:21:08;;;;;;;0.60;0.60;;;4.60;92.60;;;;;;4955754;28;20173;-66
2022/12/01 09:23:33;;;;;;;0.85;0.85;;;4.60;92.70;;;;;;4955152;28;20189;-65
2022/12/01 09:49:34;;;;;;;1.70;1.60;;;3.50;93.40;;;;;;4970096;28;20285;-67
2022/12/01 09:52:00;;;;;;;0.60;0.60;;;3.50;93.80;;;;;;4974627;28;20188;-67
2022/12/01 09:54:28;;;;;;;0.60;0.60;;;3.50;94.00;;;;;;4974317;28;20664;-67
2022/12/01 09:56:54;;;;;;;0.63;0.63;;;3.70;94.30;;;;;;4974524;28;20944;-66
2022/12/01 09:59:23;;;;;;;0.40;0.40;;;3.80;94.00;;;;;;4973496;28;20200;-67
2022/12/01 10:02:00;;;;;;;0.45;0.45;;;3.80;93.30;;;;;;4973221;28;20169;-67
2022/12/01 10:04:39;;;;;;;7.95;1.33;;;3.90;93.50;;;;;;4974086;28;20259;-67
2022/12/01 10:07:51;;;;;;;1.15;0.93;;;4.00;93.80;;;;;;4973471;28;20284;-67
2022/12/01 10:10:27;;;;;;;0.73;0.73;;;4.00;93.80;;;;;;4971569;28;20212;-67
2022/12/01 10:12:52;;;;;;;0.60;0.50;;;4.00;93.70;;;;;;4974988;28;20169;-67
2022/12/01 10:15:36;;;;;;;0.87;0.87;;;3.90;93.80;;;;;;4974970;28;20620;-67
2022/12/01 10:18:27;;;;;;;1.10;0.85;;;4.00;94.10;;;;;;4973218;28;20423;-66
2022/12/01 10:26:15;;;;;;;1.10;1.05;;;4.10;93.20;;;;;;5138039;23;20256;-68
2022/12/01 10:29:16;;;;;;;0.77;0.77;;;4.10;93.30;;;;;;4955030;28;20212;-67
2022/12/01 10:32:16;;;;;;;0.30;0.30;;;4.10;93.60;;;;;;4955136;28;20192;-67
2022/12/01 10:34:45;;;;;;;0.70;0.63;;;3.90;93.50;;;;;;4944318;28;20185;-67
2022/12/01 10:37:38;;;;;;;0.52;0.52;;;3.90;93.80;;;;;;4954799;28;20194;-66
2022/12/01 10:40:05;;;;;;;0.60;0.50;;;3.90;94.00;;;;;;4952706;29;20267;-66
2022/12/01 10:42:37;;;;;;;0.63;0.63;;;3.90;93.70;;;;;;4955126;28;20644;-66
2022/12/01 10:45:08;;;;;;;0.90;0.90;;;4.00;94.10;;;;;;4954917;28;20208;-66
2022/12/01 10:47:35;;;;;;;0.95;0.80;;;4.00;93.90;;;;;;4953570;28;20211;-66
2022/12/01 10:50:02;;;;;;;0.30;0.30;;;4.00;93.70;;;;;;4955024;28;20177;-66
2022/12/01 10:52:38;;;;;;;0.88;0.88;;;4.00;93.60;;;;;;4955256;28;20170;-66
2022/12/01 10:55:22;;;;;;;1.10;1.10;;;4.00;93.80;;;;;;4954831;28;20170;-66
2022/12/01 10:57:49;;;;;;;0.63;0.63;;;4.10;93.50;;;;;;4955087;28;20170;-67
2022/12/01 11:00:27;;;;;;;1.15;1.15;;;4.00;93.60;;;;;;4954861;28;20268;-66
2022/12/01 11:02:53;;;;;;;1.35;1.27;;;4.10;93.90;;;;;;4957891;28;20188;-65
2022/12/01 11:05:27;;;;;;;0.57;0.57;;;4.20;93.20;;;;;;4958132;28;20601;-66
2022/12/01 11:07:53;;;;;;;0.90;0.57;;;4.10;92.80;;;;;;4958341;28;20200;-66
2022/12/01 11:10:26;;;;;;;8.50;1.98;;;4.00;92.80;;;;;;4958182;28;20170;-66
2022/12/01 11:13:14;;;;;;;0.60;0.60;;;3.90;92.90;;;;;;4958196;28;20236;-65
2022/12/01 11:15:58;;;;;;;0.63;0.63;;;4.00;93.30;;;;;;4950007;28;20567;-65
2022/12/01 11:18:35;;;;;;;0.95;0.95;;;4.20;93.10;;;;;;4957972;28;20166;-65
2022/12/01 11:21:08;;;;;;;0.95;0.95;;;4.30;93.30;;;;;;4958050;28;20180;-66
2022/12/01 11:23:48;;;;;;;0.45;0.45;;;4.20;93.60;;;;;;4958155;28;20646;-66
2022/12/01 11:26:26;;;;;;;0.63;0.63;;;4.10;93.80;;;;;;4957801;28;20201;-65
2022/12/01 11:29:19;;;;;;;0.55;0.55;;;4.20;94.10;;;;;;4957739;28;20276;-66
2022/12/01 11:31:48;;;;;;;0.60;0.60;;;4.30;94.00;;;;;;4958062;28;20180;-66
2022/12/01 11:34:33;;;;;;;1.02;1.02;;;4.40;93.40;;;;;;4957560;28;20213;-67
2022/12/01 11:37:06;;;;;;;0.40;0.40;;;4.50;92.60;;;;;;4957602;28;20739;-66
2022/12/01 11:39:40;;;;;;;0.60;0.60;;;4.50;92.50;;;;;;4957355;28;20181;-66
2022/12/01 11:42:27;;;;;;;12.98;1.40;;;4.40;92.70;;;;;;4957875;28;20177;-66
2022/12/01 11:44:52;;;;;;;0.77;0.77;;;4.40;92.90;;;;;;4957722;28;20184;-66
2022/12/01 11:47:21;;;;;;;0.60;0.60;;;4.50;93.20;;;;;;4957601;28;20205;-66
2022/12/01 11:49:56;;;;;;;1.60;1.50;;;4.60;92.70;;;;;;4957560;28;20413;-68
2022/12/01 11:52:35;;;;;;;0.60;0.60;;;4.70;92.60;;;;;;4957890;28;20530;-65
2022/12/01 11:55:09;;;;;;;0.70;0.70;;;4.80;92.20;;;;;;4957483;28;20184;-66
2022/12/01 11:57:36;;;;;;;1.67;1.58;;;4.70;91.70;;;;;;4957253;28;20600;-65
2022/12/01 12:00:15;;;;;;;0.57;0.57;;;4.80;92.40;;;;;;4957956;28;20192;-66
2022/12/01 12:02:43;;;;;;;1.20;1.20;;;4.90;92.00;;;;;;4957708;28;20169;-66
2022/12/01 12:05:44;;;;;;;0.43;0.43;;;4.80;91.50;;;;;;4957146;28;20178;-66
2022/12/01 12:08:28;;;;;;;4.68;2.75;;;4.80;91.90;;;;;;4956813;28;20205;-65
2022/12/01 12:11:21;;;;;;;1.20;1.10;;;4.90;91.70;;;;;;4956990;28;20531;-66
2022/12/01 12:14:11;;;;;;;0.40;0.40;;;4.90;91.50;;;;;;4954364;29;20177;-66
2022/12/01 12:16:52;;;;;;;0.50;0.50;;;4.90;91.70;;;;;;4956832;28;20189;-67
2022/12/01 12:19:24;;;;;;;2.55;2.42;;;5.00;91.60;;;;;;4957421;28;20563;-69
2022/12/01 12:22:02;;;;;;;1.77;1.67;;;5.00;91.20;;;;;;4957259;28;20173;-67
2022/12/01 12:25:03;;;;;;;0.77;0.77;;;5.30;91.40;;;;;;4957312;28;20178;-67
2022/12/01 12:27:43;;;;;;;2.97;1.35;;;5.20;90.70;;;;;;4881998;29;20308;-67
2022/12/01 12:30:22;;;;;;;1.20;1.13;;;5.10;91.00;;;;;;4950657;28;20185;-65
2022/12/01 12:32:47;;;;;;;1.15;1.00;;;5.10;91.20;;;;;;4956357;28;20205;-66
2022/12/01 12:35:37;;;;;;;0.60;0.60;;;5.10;91.40;;;;;;4956650;28;20228;-65
2022/12/01 12:38:12;;;;;;;0.95;0.95;;;5.10;91.40;;;;;;4956663;28;20701;-65
2022/12/01 12:41:28;;;;;;;1.65;1.55;;;5.10;91.10;;;;;;4956941;28;20173;-65
2022/12/01 12:44:21;;;;;;;0.40;0.40;;;5.00;91.20;;;;;;4924363;28;20603;-66
2022/12/01 12:47:04;;;;;;;2.17;1.98;;;5.10;92.00;;;;;;4956814;28;20201;-65
2022/12/01 12:49:55;;;;;;;2.80;2.70;;;5.10;91.70;;;;;;4956558;28;20229;-66
2022/12/01 12:52:43;;;;;;;0.88;0.70;;;5.10;91.80;;;;;;4956777;28;20528;-66
2022/12/01 12:55:14;;;;;;;0.88;0.88;;;5.10;91.80;;;;;;4956113;28;20269;-67
2022/12/01 12:57:55;;;;;;;0.60;0.60;;;5.20;91.60;;;;;;4956590;28;20174;-65
2022/12/01 13:00:24;;;;;;;0.82;0.82;;;5.30;91.50;;;;;;4956627;28;20173;-67
2022/12/01 13:03:04;;;;;;;2.35;0.90;;;5.30;91.40;;;;;;4956483;28;20173;-66
2022/12/01 13:05:48;;;;;;;0.38;0.38;;;5.30;91.00;;;;;;4956205;28;20516;-69
2022/12/01 13:08:30;;;;;;;0.50;0.50;;;5.30;91.20;;;;;;4955285;29;20717;-69
2022/12/01 13:11:12;;;;;;;0.85;0.85;;;5.30;91.10;;;;;;4956638;28;20228;-69
2022/12/01 13:13:45;;;;;;;0.57;0.57;;;5.30;91.20;;;;;;4956063;28;20170;-70
2022/12/01 13:16:29;;;;;;;0.40;0.40;;;5.20;91.00;;;;;;4955744;28;20244;-66
2022/12/01 13:19:10;;;;;;;0.88;0.88;;;5.30;91.30;;;;;;4956668;28;20154;-66
2022/12/01 13:21:40;;;;;;;3.92;3.60;;;5.30;91.10;;;;;;4955883;28;20244;-68
2022/12/01 13:24:09;;;;;;;0.82;0.82;;;5.20;90.90;;;;;;4955180;28;20169;-67
2022/12/01 13:26:37;;;;;;;1.15;0.90;;;5.20;91.10;;;;;;4955594;28;20201;-69
2022/12/01 13:29:06;;;;;;;0.70;0.70;;;5.20;91.50;;;;;;4955676;28;20169;-69
2022/12/01 13:31:58;;;;;;;1.58;1.58;;;5.10;91.70;;;;;;4956325;28;20181;-66
2022/12/01 13:34:40;;;;;;;2.38;2.28;;;5.10;91.40;;;;;;4953127;29;20185;-67
2022/12/01 13:37:08;;;;;;;2.90;2.80;;;5.10;91.80;;;;;;4955569;28;20228;-68
2022/12/01 13:39:36;;;;;;;0.77;0.77;;;5.10;91.60;;;;;;4956283;28;20236;-68
2022/12/01 13:42:06;;;;;;;0.30;0.30;;;5.20;91.70;;;;;;4955731;28;20541;-67
2022/12/01 13:44:44;;;;;;;0.93;0.93;;;5.20;91.50;;;;;;4955606;28;20173;-67
2022/12/01 13:47:10;;;;;;;0.75;0.75;;;5.20;91.80;;;;;;4955261;28;20205;-67
2022/12/01 13:49:47;;;;;;;0.80;0.60;;;5.30;91.80;;;;;;4955572;28;20177;-69
2022/12/01 13:52:26;;;;;;;1.33;0.85;;;5.30;91.20;;;;;;4955689;28;20169;-68
2022/12/01 13:55:07;;;;;;;1.00;0.93;;;5.20;91.50;;;;;;4955457;29;20188;-67
2022/12/01 13:57:46;;;;;;;0.93;0.93;;;5.30;91.50;;;;;;4955394;28;20193;-67
2022/12/01 14:00:31;;;;;;;0.30;0.30;;;5.20;91.30;;;;;;4955346;28;20173;-68
2022/12/01 14:03:12;;;;;;;0.55;0.55;;;5.20;91.10;;;;;;4955581;28;20228;-68
2022/12/01 14:06:05;;;;;;;0.68;0.68;;;5.20;91.70;;;;;;4955172;28;20224;-67
2022/12/01 14:08:46;;;;;;;1.70;1.60;;;5.20;91.20;;;;;;4955338;28;20201;-69
2022/12/01 14:11:25;;;;;;;0.30;0.30;;;5.20;91.60;;;;;;4955235;28;20169;-69
2022/12/01 14:13:55;;;;;;;2.95;2.83;;;5.10;91.50;;;;;;4955480;28;20209;-67
2022/12/01 14:16:22;;;;;;;1.60;0.90;;;5.10;91.10;;;;;;4953718;28;20693;-66
2022/12/01 14:18:56;;;;;;;1.48;1.38;;;5.10;91.10;;;;;;4955379;28;20277;-67
2022/12/01 14:21:44;;;;;;;0.88;0.88;;;5.20;91.50;;;;;;4955248;28;20308;-66
2022/12/01 14:24:51;;;;;;;0.43;0.43;;;5.20;91.30;;;;;;4953946;29;20638;-67
2022/12/01 14:27:36;;;;;;;1.70;1.65;;;5.20;91.60;;;;;;4926104;28;20256;-68
2022/12/01 14:30:38;;;;;;;0.40;0.40;;;5.20;91.50;;;;;;4955290;28;20186;-69
2022/12/01 14:33:38;;;;;;;1.63;1.60;;;5.10;91.60;;;;;;4955115;28;20173;-69
2022/12/01 14:36:22;;;;;;;0.63;0.50;;;5.00;91.00;;;;;;4957092;28;20189;-66
2022/12/01 14:39:22;;;;;;;0.63;0.63;;;5.00;91.50;;;;;;4958795;28;20244;-66
2022/12/01 14:41:56;;;;;;;0.50;0.50;;;5.00;91.50;;;;;;4954556;29;20221;-69
2022/12/01 14:44:33;;;;;;;1.25;1.15;;;4.80;91.10;;;;;;4958576;28;20189;-66
2022/12/01 14:47:50;;;;;;;0.98;0.98;;;4.90;91.40;;;;;;4958442;28;20236;-68
2022/12/01 14:50:21;;;;;;;0.40;0.40;;;4.80;91.70;;;;;;4926352;28;20212;-67
2022/12/01 14:52:56;;;;;;;0.50;0.50;;;4.90;92.10;;;;;;4958499;28;20181;-69
2022/12/01 14:55:26;;;;;;;0.98;0.98;;;4.90;92.10;;;;;;4958199;28;20165;-67
2022/12/01 14:58:18;;;;;;;0.40;0.40;;;4.90;91.90;;;;;;4958466;28;20177;-67
2022/12/01 15:01:06;;;;;;;0.60;0.60;;;4.90;91.60;;;;;;4958046;29;20185;-67